createdAt,value
2018-02-24T00:02:01.099Z,95655.80
2018-02-24T00:04:29.513Z,95663.13
2018-02-24T00:06:57.919Z,95657.19
2018-02-24T00:09:26.246Z,95651.66
2018-02-24T00:11:54.598Z,95658.44
2018-02-24T00:14:23.011Z,95658.39
2018-02-24T00:16:51.360Z,95656.87
2018-02-24T00:19:19.682Z,95669.45
2018-02-24T00:21:48.035Z,95662.74
2018-02-24T00:24:16.364Z,95671.14
2018-02-24T00:26:44.770Z,95667.37
2018-02-24T00:29:13.175Z,95667.49
2018-02-24T00:31:41.598Z,95653.61
2018-02-24T00:34:09.918Z,95650.61
2018-02-24T00:36:38.261Z,95654.22
2018-02-24T00:39:06.588Z,95660.06
2018-02-24T00:41:34.942Z,95653.11
2018-02-24T00:44:03.288Z,95645.84
2018-02-24T00:46:31.636Z,95655.13
2018-02-24T00:48:59.974Z,95658.32
2018-02-24T00:51:28.394Z,95656.23
2018-02-24T00:53:56.801Z,95657.24
2018-02-24T00:56:25.186Z,95667.82
2018-02-24T00:58:53.504Z,95668.55
2018-02-24T01:01:21.935Z,95664.13
2018-02-24T01:03:50.247Z,95660.34
2018-02-24T01:06:18.607Z,95652.04
2018-02-24T01:08:47.043Z,95655.77
2018-02-24T01:11:15.411Z,95661.16
2018-02-24T01:13:43.754Z,95659.95
2018-02-24T01:16:12.105Z,95658.28
2018-02-24T01:18:40.443Z,95649.41
2018-02-24T01:21:08.815Z,95649.63
2018-02-24T01:23:37.118Z,95645.78
2018-02-24T01:26:05.474Z,95648.77
2018-02-24T01:28:33.822Z,95636.52
2018-02-24T01:31:02.190Z,95645.61
2018-02-24T01:33:30.518Z,95655.48
2018-02-24T01:35:58.975Z,95647.61
2018-02-24T01:38:27.295Z,95647.81
2018-02-24T01:40:55.630Z,95646.52
2018-02-24T01:43:23.976Z,95641.94
2018-02-24T01:45:52.399Z,95649.93
2018-02-24T01:48:20.726Z,95653.48
2018-02-24T01:50:49.096Z,95640.23
2018-02-24T01:53:17.423Z,95652.66
2018-02-24T01:55:45.822Z,95642.29
2018-02-24T01:58:14.161Z,95654.63
2018-02-24T02:00:42.779Z,95666.25
2018-02-24T02:03:11.103Z,95653.59
2018-02-24T02:05:39.458Z,95658.55
2018-02-24T02:08:07.783Z,95644.84
2018-02-24T02:10:36.138Z,95654.83
2018-02-24T02:13:04.459Z,95647.41
2018-02-24T02:15:32.834Z,95652.06
2018-02-24T02:18:01.256Z,95649.70
2018-02-24T02:20:29.698Z,95642.33
2018-02-24T02:22:58.023Z,95648.19
2018-02-24T02:25:26.383Z,95648.43
2018-02-24T02:27:54.730Z,95649.92
2018-02-24T02:30:23.123Z,95654.66
2018-02-24T02:32:51.507Z,95650.09
2018-02-24T02:35:19.853Z,95644.52
2018-02-24T02:37:48.175Z,95651.75
2018-02-24T02:40:16.560Z,95648.61
2018-02-24T02:42:44.940Z,95653.30
2018-02-24T02:45:13.391Z,95658.59
2018-02-24T02:47:41.718Z,95653.55
2018-02-24T02:50:10.130Z,95655.67
2018-02-24T02:52:38.467Z,95651.55
2018-02-24T02:55:07.034Z,95651.08
2018-02-24T02:57:35.412Z,95658.60
2018-02-24T03:00:03.743Z,95651.41
2018-02-24T03:02:32.095Z,95655.00
2018-02-24T03:05:00.507Z,95652.36
2018-02-24T03:07:28.859Z,95663.31
2018-02-24T03:09:57.272Z,95666.95
2018-02-24T03:12:25.595Z,95665.01
2018-02-24T03:14:53.967Z,95664.30
2018-02-24T03:17:22.338Z,95665.80
2018-02-24T03:19:50.716Z,95661.14
2018-02-24T03:24:53.726Z,95668.16
2018-02-24T03:27:22.096Z,95671.75
2018-02-24T03:29:50.408Z,95665.60
2018-02-24T03:32:18.763Z,95669.09
2018-02-24T03:34:47.103Z,95673.25
2018-02-24T03:37:15.550Z,95671.23
2018-02-24T03:39:43.878Z,95674.92
2018-02-24T03:42:12.234Z,95673.61
2018-02-24T03:44:40.582Z,95667.30
2018-02-24T03:47:09.027Z,95680.67
2018-02-24T03:49:37.401Z,95682.17
2018-02-24T03:52:05.726Z,95681.47
2018-02-24T03:54:34.075Z,95688.22
2018-02-24T03:57:02.406Z,95696.06
2018-02-24T03:59:30.779Z,95696.50
2018-02-24T04:01:59.156Z,95697.67
2018-02-24T04:04:27.489Z,95705.27
2018-02-24T04:06:55.827Z,95691.74
2018-02-24T04:09:24.225Z,95694.03
2018-02-24T04:11:52.607Z,95696.31
2018-02-24T04:14:20.915Z,95697.44
2018-02-24T04:16:49.296Z,95696.94
2018-02-24T04:19:17.695Z,95694.37
2018-02-24T04:21:46.047Z,95697.51
2018-02-24T04:24:14.382Z,95690.92
2018-02-24T04:26:42.732Z,95694.31
2018-02-24T04:29:11.082Z,95704.03
2018-02-24T04:31:39.528Z,95702.23
2018-02-24T04:34:07.905Z,95699.96
2018-02-24T04:36:36.258Z,95702.17
2018-02-24T04:39:04.588Z,95699.01
2018-02-24T04:41:32.951Z,95706.82
2018-02-24T04:44:01.287Z,95699.59
2018-02-24T04:46:29.638Z,95702.81
2018-02-24T04:48:57.971Z,95705.49
2018-02-24T04:51:26.310Z,95703.18
2018-02-24T04:53:54.695Z,95699.47
2018-02-24T04:56:23.039Z,95708.02
2018-02-24T04:58:51.394Z,95712.02
2018-02-24T05:01:19.730Z,95709.89
2018-02-24T05:03:48.094Z,95708.56
2018-02-24T05:06:16.454Z,95713.47
2018-02-24T05:08:44.794Z,95716.75
2018-02-24T05:11:13.143Z,95716.27
2018-02-24T05:13:41.481Z,95720.55
2018-02-24T05:16:09.888Z,95716.73
2018-02-24T05:18:38.525Z,95724.32
2018-02-24T05:21:06.892Z,95719.70
2018-02-24T05:23:35.237Z,95717.52
2018-02-24T05:26:03.584Z,95725.23
2018-02-24T05:28:31.921Z,95728.25
2018-02-24T05:31:00.383Z,95728.50
2018-02-24T05:33:28.747Z,95732.14
2018-02-24T05:35:57.098Z,95741.49
2018-02-24T05:38:25.542Z,95737.13
2018-02-24T05:40:53.881Z,95743.69
2018-02-24T05:43:22.214Z,95745.80
2018-02-24T05:45:50.634Z,95747.16
2018-02-24T05:48:19.017Z,95751.47
2018-02-24T05:50:47.402Z,95744.64
2018-02-24T05:53:15.785Z,95741.93
2018-02-24T05:55:44.189Z,95748.73
2018-02-24T05:58:12.569Z,95753.77
2018-02-24T06:00:40.905Z,95750.34
2018-02-24T06:03:09.237Z,95753.05
2018-02-24T06:05:37.660Z,95752.18
2018-02-24T06:08:05.997Z,95749.98
2018-02-24T06:10:34.326Z,95745.44
2018-02-24T06:13:02.659Z,95754.51
2018-02-24T06:15:31.002Z,95755.16
2018-02-24T06:17:59.338Z,95757.63
2018-02-24T06:20:27.776Z,95765.28
2018-02-24T06:22:56.153Z,95769.34
2018-02-24T06:25:24.503Z,95767.12
2018-02-24T06:27:52.838Z,95766.13
2018-02-24T06:30:21.195Z,95770.73
2018-02-24T06:32:49.620Z,95776.95
2018-02-24T06:35:17.974Z,95783.34
2018-02-24T06:37:46.295Z,95780.91
2018-02-24T06:40:14.639Z,95775.67
2018-02-24T06:42:42.977Z,95789.41
2018-02-24T06:45:11.351Z,95788.72
2018-02-24T06:47:39.699Z,95797.84
2018-02-24T06:50:08.039Z,95798.50
2018-02-24T06:52:36.364Z,95799.30
2018-02-24T06:55:04.722Z,95802.59
2018-02-24T06:57:33.046Z,95808.09
2018-02-24T07:00:01.402Z,95798.25
2018-02-24T07:02:29.854Z,95802.39
2018-02-24T07:04:58.190Z,95803.88
2018-02-24T07:07:26.562Z,95802.34
2018-02-24T07:09:54.914Z,95810.09
2018-02-24T07:12:23.226Z,95814.02
2018-02-24T07:14:51.644Z,95814.34
2018-02-24T07:17:19.985Z,95825.23
2018-02-24T07:19:48.318Z,95821.91
2018-02-24T07:22:16.652Z,95822.02
2018-02-24T07:24:45.016Z,95826.83
2018-02-24T07:27:13.437Z,95827.11
2018-02-24T07:29:42.592Z,95832.47
2018-02-24T07:32:10.955Z,95840.51
2018-02-24T07:34:39.307Z,95838.24
2018-02-24T07:37:07.659Z,95846.02
2018-02-24T07:39:36.013Z,95847.80
2018-02-24T07:42:04.366Z,95845.92
2018-02-24T07:44:32.709Z,95845.86
2018-02-24T07:47:01.070Z,95846.48
2018-02-24T07:49:29.462Z,95840.39
2018-02-24T07:51:57.806Z,95843.51
2018-02-24T07:54:26.139Z,95844.03
2018-02-24T07:56:54.747Z,95839.47
2018-02-24T07:59:23.183Z,95847.40
2018-02-24T08:01:51.594Z,95843.44
2018-02-24T08:04:19.919Z,95841.86
2018-02-24T08:06:48.348Z,95854.31
2018-02-24T08:09:16.668Z,95848.30
2018-02-24T08:11:45.020Z,95856.02
2018-02-24T08:14:13.355Z,95863.37
2018-02-24T08:16:41.711Z,95863.44
2018-02-24T08:19:10.047Z,95863.06
2018-02-24T08:21:38.415Z,95868.00
2018-02-24T08:24:06.773Z,95866.29
2018-02-24T08:26:35.162Z,95863.88
2018-02-24T08:29:03.520Z,95862.94
2018-02-24T08:31:31.876Z,95861.19
2018-02-24T08:34:00.207Z,95862.00
2018-02-24T08:36:28.562Z,95858.83
2018-02-24T08:38:56.961Z,95860.92
2018-02-24T08:41:25.342Z,95871.77
2018-02-24T08:43:53.717Z,95876.08
2018-02-24T08:46:22.031Z,95867.91
2018-02-24T08:48:50.382Z,95876.84
2018-02-24T08:51:18.715Z,95873.53
2018-02-24T08:53:47.067Z,95868.55
2018-02-24T08:56:15.391Z,95877.84
2018-02-24T08:58:43.855Z,95873.47
2018-02-24T09:01:12.224Z,95876.39
2018-02-24T09:03:40.578Z,95880.27
2018-02-24T09:06:08.904Z,95870.95
2018-02-24T09:08:37.265Z,95877.80
2018-02-24T09:11:05.662Z,95879.63
2018-02-24T09:13:34.010Z,95880.46
2018-02-24T09:16:02.397Z,95868.34
2018-02-24T09:18:30.783Z,95876.66
2018-02-24T09:20:59.119Z,95880.02
2018-02-24T09:23:27.467Z,95881.72
2018-02-24T09:25:55.945Z,95877.27
2018-02-24T09:28:24.312Z,95874.45
2018-02-24T09:30:52.635Z,95875.71
2018-02-24T09:33:20.983Z,95879.03
2018-02-24T09:35:49.362Z,95872.59
2018-02-24T09:38:17.726Z,95880.34
2018-02-24T09:40:46.188Z,95867.48
2018-02-24T09:43:14.586Z,95877.52
2018-02-24T09:45:42.907Z,95883.39
2018-02-24T09:48:11.326Z,95875.06
2018-02-24T09:50:39.644Z,95880.70
2018-02-24T09:53:08.082Z,95887.69
2018-02-24T09:55:36.488Z,95872.92
2018-02-24T09:58:04.841Z,95882.75
2018-02-24T10:00:33.188Z,95875.13
2018-02-24T10:03:01.561Z,95882.36
2018-02-24T10:05:29.966Z,95874.93
2018-02-24T10:07:58.318Z,95875.94
2018-02-24T10:10:26.659Z,95875.06
2018-02-24T10:12:55.022Z,95878.06
2018-02-24T10:15:23.327Z,95871.34
2018-02-24T10:17:51.675Z,95871.78
2018-02-24T10:20:20.052Z,95877.68
2018-02-24T10:22:48.430Z,95883.09
2018-02-24T10:25:16.755Z,95884.13
2018-02-24T10:27:45.166Z,95880.61
2018-02-24T10:30:13.542Z,95869.33
2018-02-24T10:32:41.959Z,95871.55
2018-02-24T10:35:10.258Z,95872.64
2018-02-24T10:37:38.600Z,95869.08
2018-02-24T10:40:06.955Z,95867.05
2018-02-24T10:42:35.308Z,95873.24
2018-02-24T10:45:03.666Z,95867.50
2018-02-24T10:47:32.868Z,95859.92
2018-02-24T10:50:01.202Z,95851.50
2018-02-24T10:52:29.547Z,95854.16
2018-02-24T10:54:57.883Z,95861.05
2018-02-24T10:57:26.247Z,95861.48
2018-02-24T10:59:54.631Z,95860.41
2018-02-24T11:02:22.960Z,95857.73
2018-02-24T11:04:51.387Z,95848.83
2018-02-24T11:07:19.709Z,95851.36
2018-02-24T11:09:48.029Z,95852.87
2018-02-24T11:12:16.378Z,95848.25
2018-02-24T11:14:44.698Z,95839.49
2018-02-24T11:17:13.030Z,95837.59
2018-02-24T11:19:41.452Z,95843.25
2018-02-24T11:22:09.784Z,95847.66
2018-02-24T11:24:38.135Z,95829.61
2018-02-24T11:27:06.463Z,95836.50
2018-02-24T11:29:34.800Z,95828.70
2018-02-24T11:32:03.199Z,95832.45
2018-02-24T11:34:31.635Z,95827.39
2018-02-24T11:36:59.945Z,95833.16
2018-02-24T11:39:33.964Z,95829.04
2018-02-24T11:42:02.283Z,95825.16
2018-02-24T11:44:30.635Z,95822.27
2018-02-24T11:46:59.044Z,95818.95
2018-02-24T11:49:27.395Z,95818.88
2018-02-24T11:51:55.799Z,95809.44
2018-02-24T11:54:24.176Z,95811.46
2018-02-24T11:56:52.546Z,95814.40
2018-02-24T11:59:20.896Z,95814.31
2018-02-24T12:01:49.226Z,95798.27
2018-02-24T12:04:17.569Z,95796.80
2018-02-24T12:06:45.898Z,95800.06
2018-02-24T12:09:14.244Z,95794.54
2018-02-24T12:11:42.640Z,95796.52
2018-02-24T12:14:11.006Z,95790.93
2018-02-24T12:19:14.110Z,95793.09
2018-02-24T12:21:42.415Z,95785.38
2018-02-24T12:24:10.754Z,95787.88
2018-02-24T12:26:39.136Z,95791.61
2018-02-24T12:29:07.470Z,95785.03
2018-02-24T12:31:35.800Z,95789.17
2018-02-24T12:34:04.119Z,95782.80
2018-02-24T12:36:32.455Z,95780.86
2018-02-24T12:39:00.804Z,95790.52
2018-02-24T12:41:29.141Z,95786.94
2018-02-24T12:43:57.463Z,95783.00
2018-02-24T12:46:25.787Z,95777.52
2018-02-24T12:48:54.131Z,95775.27
2018-02-24T12:51:22.451Z,95781.77
2018-02-24T12:53:50.805Z,95780.65
2018-02-24T12:56:19.118Z,95771.45
2018-02-24T12:58:47.465Z,95780.64
2018-02-24T13:01:15.786Z,95774.28
2018-02-24T13:03:44.138Z,95779.85
2018-02-24T13:06:12.466Z,95770.64
2018-02-24T13:08:40.807Z,95769.17
2018-02-24T13:11:09.166Z,95771.31
2018-02-24T13:13:37.524Z,95773.08
2018-02-24T13:16:05.847Z,95771.06
2018-02-24T13:18:34.245Z,95777.61
2018-02-24T13:21:02.572Z,95775.95
2018-02-24T13:23:30.896Z,95769.91
2018-02-24T13:25:59.226Z,95773.42
2018-02-24T13:28:27.779Z,95787.35
2018-02-24T13:30:56.158Z,95784.99
2018-02-24T13:33:24.483Z,95783.72
2018-02-24T13:35:53.825Z,95789.79
2018-02-24T13:38:22.136Z,95785.65
2018-02-24T13:40:50.485Z,95779.95
2018-02-24T13:43:18.968Z,95782.38
2018-02-24T13:45:47.313Z,95784.81
2018-02-24T13:48:15.705Z,95779.04
2018-02-24T13:50:44.000Z,95785.23
2018-02-24T13:53:12.306Z,95777.39
2018-02-24T13:55:40.666Z,95785.28
2018-02-24T13:58:09.002Z,95782.46
2018-02-24T14:00:37.338Z,95792.72
2018-02-24T14:03:05.715Z,95793.00
2018-02-24T14:05:34.030Z,95787.91
2018-02-24T14:08:02.368Z,95793.41
2018-02-24T14:10:30.700Z,95789.20
2018-02-24T14:12:59.099Z,95786.66
2018-02-24T14:15:27.447Z,95786.84
2018-02-24T14:17:55.776Z,95791.34
2018-02-24T14:20:24.132Z,95790.34
2018-02-24T14:22:52.453Z,95788.48
2018-02-24T14:25:20.855Z,95786.20
2018-02-24T14:27:49.171Z,95796.86
2018-02-24T14:30:17.523Z,95789.30
2018-02-24T14:32:45.855Z,95788.75
2018-02-24T14:35:14.198Z,95790.88
2018-02-24T14:37:42.524Z,95796.78
2018-02-24T14:40:10.878Z,95792.39
2018-02-24T14:42:39.295Z,95786.31
2018-02-24T14:45:07.646Z,95800.72
2018-02-24T14:47:35.973Z,95790.06
2018-02-24T14:50:04.320Z,95803.13
2018-02-24T14:52:32.658Z,95803.42
2018-02-24T14:55:01.001Z,95795.27
2018-02-24T14:57:29.327Z,95802.80
2018-02-24T14:59:57.672Z,95806.45
2018-02-24T15:02:25.998Z,95809.25
2018-02-24T15:04:54.346Z,95810.16
2018-02-24T15:07:22.663Z,95824.33
2018-02-24T15:09:51.085Z,95814.25
2018-02-24T15:12:19.403Z,95814.78
2018-02-24T15:14:47.732Z,95830.80
2018-02-24T15:17:16.063Z,95833.30
2018-02-24T15:19:44.409Z,95832.12
2018-02-24T15:22:12.745Z,95828.12
2018-02-24T15:24:41.082Z,95833.38
2018-02-24T15:27:09.440Z,95830.54
2018-02-24T15:29:38.419Z,95840.05
2018-02-24T15:32:06.796Z,95831.44
2018-02-24T15:34:35.120Z,95839.60
2018-02-24T15:37:03.475Z,95834.23
2018-02-24T15:39:31.879Z,95837.30
2018-02-24T15:42:00.283Z,95837.52
2018-02-24T15:44:28.663Z,95845.19
2018-02-24T15:46:57.065Z,95851.70
2018-02-24T15:49:25.386Z,95846.91
2018-02-24T15:51:53.819Z,95846.27
2018-02-24T15:54:22.119Z,95854.38
2018-02-24T15:56:50.455Z,95850.61
2018-02-24T15:59:18.854Z,95864.34
2018-02-24T16:01:47.294Z,95861.08
2018-02-24T16:04:15.685Z,95863.42
2018-02-24T16:06:44.068Z,95862.63
2018-02-24T16:09:12.427Z,95861.08
2018-02-24T16:11:40.734Z,95860.23
2018-02-24T16:14:09.123Z,95861.50
2018-02-24T16:16:37.432Z,95866.83
2018-02-24T16:19:06.034Z,95864.05
2018-02-24T16:21:34.379Z,95869.55
2018-02-24T16:24:02.739Z,95870.70
2018-02-24T16:26:31.036Z,95876.73
2018-02-24T16:28:59.384Z,95879.52
2018-02-24T16:31:27.687Z,95884.37
2018-02-24T16:33:56.103Z,95888.37
2018-02-24T16:36:24.528Z,95886.21
2018-02-24T16:38:52.855Z,95889.86
2018-02-24T16:41:21.354Z,95887.32
2018-02-24T16:43:49.695Z,95885.40
2018-02-24T16:46:18.042Z,95900.33
2018-02-24T16:48:46.376Z,95891.94
2018-02-24T16:51:14.693Z,95906.20
2018-02-24T16:53:43.146Z,95909.09
2018-02-24T16:56:11.464Z,95910.95
2018-02-24T16:58:39.792Z,95915.67
2018-02-24T17:01:08.217Z,95909.25
2018-02-24T17:03:36.552Z,95912.45
2018-02-24T17:06:04.879Z,95915.36
2018-02-24T17:08:33.301Z,95924.67
2018-02-24T17:11:01.689Z,95927.30
2018-02-24T17:13:30.064Z,95925.58
2018-02-24T17:15:58.439Z,95922.98
2018-02-24T17:18:26.785Z,95921.94
2018-02-24T17:20:55.209Z,95927.33
2018-02-24T17:23:23.615Z,95924.97
2018-02-24T17:25:51.930Z,95930.16
2018-02-24T17:28:20.270Z,95943.80
2018-02-24T17:30:48.616Z,95948.86
2018-02-24T17:33:16.958Z,95946.97
2018-02-24T17:35:45.297Z,95953.18
2018-02-24T17:38:13.649Z,95955.86
2018-02-24T17:40:42.072Z,95956.16
2018-02-24T17:43:10.418Z,95962.58
2018-02-24T17:45:38.735Z,95963.10
2018-02-24T17:48:07.119Z,95970.42
2018-02-24T17:50:35.469Z,95959.25
2018-02-24T17:53:03.849Z,95960.25
2018-02-24T17:55:32.185Z,95960.13
2018-02-24T17:58:00.526Z,95959.42
2018-02-24T18:00:29.017Z,95971.69
2018-02-24T18:02:57.370Z,95973.33
2018-02-24T18:05:25.738Z,95969.39
2018-02-24T18:07:54.088Z,95973.30
2018-02-24T18:10:22.420Z,95974.06
2018-02-24T18:12:50.787Z,95979.13
2018-02-24T18:15:19.115Z,95979.98
2018-02-24T18:17:46.993Z,95979.42
2018-02-24T18:20:15.207Z,95979.55
2018-02-24T18:22:43.546Z,95987.91
2018-02-24T18:25:11.883Z,95984.95
2018-02-24T18:27:40.221Z,95994.93
2018-02-24T18:30:08.539Z,95988.84
2018-02-24T18:32:36.939Z,95986.08
2018-02-24T18:35:05.283Z,95996.48
2018-02-24T18:37:33.633Z,95998.43
2018-02-24T18:40:01.968Z,95993.02
2018-02-24T18:42:30.354Z,95996.80
2018-02-24T18:44:58.698Z,95998.28
2018-02-24T18:47:27.034Z,95999.63
2018-02-24T18:49:55.361Z,96000.53
2018-02-24T18:52:23.753Z,96003.59
2018-02-24T18:54:52.072Z,96015.15
2018-02-24T18:57:20.456Z,96014.22
2018-02-24T18:59:48.837Z,96016.72
2018-02-24T19:02:17.188Z,96011.59
2018-02-24T19:04:45.527Z,96015.20
2018-02-24T19:07:13.934Z,96019.28
2018-02-24T19:09:42.259Z,96019.40
2018-02-24T19:12:10.607Z,96012.75
2018-02-24T19:14:38.927Z,96014.86
2018-02-24T19:17:07.274Z,96018.34
2018-02-24T19:19:35.659Z,96032.63
2018-02-24T19:22:03.990Z,96024.75
2018-02-24T19:24:32.382Z,96029.64
2018-02-24T19:27:00.733Z,96032.47
2018-02-24T19:29:29.082Z,96030.27
2018-02-24T19:31:57.448Z,96034.86
2018-02-24T19:34:25.799Z,96038.42
2018-02-24T19:36:54.127Z,96040.19
2018-02-24T19:39:22.469Z,96031.80
2018-02-24T19:41:50.855Z,96031.39
2018-02-24T19:44:19.341Z,96033.91
2018-02-24T19:46:47.660Z,96026.94
2018-02-24T19:49:15.999Z,96034.84
2018-02-24T19:51:44.376Z,96038.18
2018-02-24T19:54:12.814Z,96033.55
2018-02-24T19:56:41.141Z,96032.23
2018-02-24T19:59:09.488Z,96041.65
2018-02-24T20:01:37.810Z,96038.64
2018-02-24T20:04:06.162Z,96044.53
2018-02-24T20:06:34.536Z,96043.20
2018-02-24T20:09:02.870Z,96040.31
2018-02-24T20:11:31.254Z,96035.25
2018-02-24T20:13:59.683Z,96030.28
2018-02-24T20:16:28.014Z,96038.25
2018-02-24T20:18:56.342Z,96038.97
2018-02-24T20:21:24.695Z,96045.94
2018-02-24T20:23:53.086Z,96048.61
2018-02-24T20:26:21.565Z,96056.50
2018-02-24T20:28:49.885Z,96047.98
2018-02-24T20:31:18.232Z,96049.55
2018-02-24T20:33:46.671Z,96048.98
2018-02-24T20:36:15.023Z,96041.22
2018-02-24T20:38:43.341Z,96040.56
2018-02-24T20:41:11.787Z,96046.47
2018-02-24T20:43:40.138Z,96047.44
2018-02-24T20:46:08.479Z,96043.63
2018-02-24T20:48:36.818Z,96053.37
2018-02-24T20:51:05.247Z,96058.70
2018-02-24T20:53:33.582Z,96062.23
2018-02-24T20:56:01.918Z,96066.34
2018-02-24T20:58:30.251Z,96067.75
2018-02-24T21:00:58.590Z,96065.14
2018-02-24T21:03:26.915Z,96068.07
2018-02-24T21:05:55.276Z,96072.23
2018-02-24T21:08:23.599Z,96072.86
2018-02-24T21:10:51.965Z,96075.73
2018-02-24T21:13:20.339Z,96076.73
2018-02-24T21:15:48.685Z,96070.93
2018-02-24T21:18:17.067Z,96080.91
2018-02-24T21:20:45.478Z,96086.61
2018-02-24T21:23:13.818Z,96091.40
2018-02-24T21:25:42.157Z,96088.14
2018-02-24T21:28:10.499Z,96093.59
2018-02-24T21:30:38.848Z,96094.71
2018-02-24T21:33:07.286Z,96103.76
2018-02-24T21:35:35.646Z,96098.27
2018-02-24T21:38:04.003Z,96101.73
2018-02-24T21:40:32.384Z,96095.18
2018-02-24T21:43:00.709Z,96092.48
2018-02-24T21:45:29.046Z,96090.99
2018-02-24T21:47:57.404Z,96099.63
2018-02-24T21:50:25.755Z,96104.90
2018-02-24T21:52:54.064Z,96104.01
2018-02-24T21:55:22.394Z,96105.68
2018-02-24T21:57:50.722Z,96108.04
2018-02-24T22:00:19.091Z,96102.09
2018-02-24T22:02:47.463Z,96095.87
2018-02-24T22:05:15.783Z,96106.37
2018-02-24T22:07:44.100Z,96106.30
2018-02-24T22:10:12.488Z,96099.53
2018-02-24T22:12:40.864Z,96103.34
2018-02-24T22:15:09.242Z,96108.55
2018-02-24T22:17:37.626Z,96109.77
2018-02-24T22:20:06.048Z,96114.69
2018-02-24T22:22:34.352Z,96111.92
2018-02-24T22:25:02.806Z,96116.78
2018-02-24T22:27:31.138Z,96115.19
2018-02-24T22:29:59.559Z,96108.81
2018-02-24T22:32:27.896Z,96112.78
2018-02-24T22:34:56.273Z,96110.95
2018-02-24T22:37:24.659Z,96115.61
2018-02-24T22:39:53.031Z,96114.16
2018-02-24T22:42:21.454Z,96113.35
2018-02-24T22:44:49.830Z,96109.48
2018-02-24T22:47:18.173Z,96118.20
2018-02-24T22:49:46.589Z,96120.80
2018-02-24T22:52:15.038Z,96118.29
2018-02-24T22:54:43.358Z,96116.13
2018-02-24T22:57:11.686Z,96114.75
2018-02-24T22:59:40.054Z,96126.32
2018-02-24T23:02:08.362Z,96125.77
2018-02-24T23:04:36.755Z,96116.70
2018-02-24T23:07:05.138Z,96120.44
2018-02-24T23:09:33.463Z,96116.06
2018-02-24T23:12:01.791Z,96115.21
2018-02-24T23:14:30.135Z,96119.06
2018-02-24T23:16:58.447Z,96115.48
2018-02-24T23:19:26.797Z,96114.98
2018-02-24T23:21:55.124Z,96115.98
2018-02-24T23:24:23.508Z,96116.07
2018-02-24T23:26:51.853Z,96118.91
2018-02-24T23:29:20.235Z,96128.65
2018-02-24T23:31:48.574Z,96129.54
2018-02-24T23:34:16.894Z,96126.48
2018-02-24T23:36:45.231Z,96132.52
2018-02-24T23:39:13.548Z,96124.94
2018-02-24T23:41:41.920Z,96133.09
2018-02-24T23:44:10.248Z,96136.70
2018-02-24T23:46:38.556Z,96132.02
2018-02-24T23:49:07.025Z,96136.58
2018-02-24T23:51:35.337Z,96138.98
2018-02-24T23:54:03.763Z,96145.85
2018-02-24T23:56:32.159Z,96132.66
2018-02-24T23:59:00.529Z,96133.80
